createdAt,value
2016-11-28T14:43:57.218Z,372
2016-11-28T14:44:25.023Z,368
2016-11-28T14:44:52.839Z,368
2016-11-28T14:45:20.746Z,376
2016-11-28T14:45:48.454Z,372
2016-11-28T14:46:16.354Z,352
2016-11-28T14:46:44.168Z,280
2016-11-28T14:47:12.108Z,292
2016-11-28T14:51:37.596Z,348
2016-11-28T14:52:05.465Z,356
2016-11-28T14:52:33.153Z,352
2016-11-28T14:53:01.048Z,356
2016-11-28T14:53:28.748Z,352
2016-11-28T14:53:56.578Z,348
2016-11-28T14:54:24.277Z,348
2016-11-28T14:54:52.094Z,360
2016-11-28T15:06:28.384Z,131872
2016-11-28T15:06:56.301Z,142080
2016-11-28T15:07:24.086Z,129056
2016-11-28T15:07:51.900Z,14508
2016-11-28T15:08:19.605Z,14696
2016-11-28T15:08:47.403Z,15084
2016-11-28T15:09:15.277Z,15200
2016-11-28T15:09:43.420Z,15068
2016-11-28T15:10:11.287Z,13984
2016-11-28T15:10:38.962Z,13844
2016-11-28T15:11:06.913Z,14524
2016-11-28T15:11:34.670Z,16176
2016-11-28T15:12:02.456Z,17296
2016-11-28T15:12:30.133Z,16580
2016-11-28T15:12:58.155Z,29664
2016-11-28T15:13:25.960Z,24544
2016-11-28T15:13:53.700Z,25568
2016-11-28T15:14:21.417Z,60416
2016-11-28T15:14:49.084Z,22464
2016-11-28T15:15:17.328Z,66528
2016-11-28T15:15:45.124Z,17696
2016-11-28T15:16:13.029Z,22592
2016-11-28T15:16:40.931Z,21024
2016-11-28T15:17:08.659Z,22912
2016-11-28T15:17:36.377Z,23040
2016-11-28T15:18:04.101Z,16320
2016-11-28T15:18:31.804Z,22144
2016-11-28T15:18:59.624Z,19200
2016-11-28T15:19:27.512Z,20736
2016-11-28T15:19:55.597Z,22944
2016-11-28T15:20:23.577Z,19808
2016-11-28T15:20:51.286Z,19776
2016-11-28T15:21:19.003Z,17160
2016-11-28T15:21:46.839Z,15020
2016-11-28T15:22:14.621Z,14328
2016-11-28T15:22:42.275Z,13036
2016-11-28T15:23:10.002Z,12324
2016-11-28T15:23:37.775Z,13988
2016-11-28T15:24:05.768Z,16788
2016-11-28T15:24:33.747Z,19072
2016-11-28T15:25:01.566Z,19680
2016-11-28T15:25:29.527Z,21920
2016-11-28T15:25:57.304Z,26304
2016-11-28T15:30:09.494Z,25792
2016-11-28T15:30:37.208Z,31136
2016-11-28T15:31:05.089Z,33248
2016-11-28T15:31:32.776Z,36608
2016-11-28T15:32:00.639Z,14600
2016-11-28T15:32:28.399Z,13152
2016-11-28T15:32:56.195Z,13456
2016-11-28T15:33:23.980Z,13564
2016-11-28T15:33:51.754Z,13476
2016-11-28T15:34:19.573Z,13500
2016-11-28T15:34:47.345Z,13544
2016-11-28T15:35:15.164Z,13640
2016-11-28T15:35:43.121Z,13632
2016-11-28T15:36:10.851Z,13612
2016-11-28T15:36:38.557Z,13664
2016-11-28T15:37:06.378Z,13720
2016-11-28T15:37:34.282Z,13752
2016-11-28T15:38:02.069Z,12868
2016-11-28T15:38:29.838Z,16544
2016-11-28T15:38:57.533Z,27360
2016-11-28T15:39:25.304Z,32608
2016-11-28T15:39:53.261Z,23904
2016-11-28T15:40:20.953Z,10456
2016-11-28T15:40:48.763Z,11572
2016-11-28T15:41:16.677Z,12112
2016-11-28T15:41:44.510Z,5808
2016-11-28T15:42:12.210Z,5928
2016-11-28T15:42:39.996Z,6472
2016-11-28T15:43:07.783Z,6316
2016-11-28T15:43:35.613Z,6124
2016-11-28T15:44:03.371Z,6028
2016-11-28T15:44:31.176Z,11724
2016-11-28T15:44:58.857Z,15948
2016-11-28T15:45:26.871Z,15840
2016-11-28T15:45:54.562Z,13120
2016-11-28T15:46:22.261Z,11468
2016-11-28T15:46:49.967Z,12136
2016-11-28T15:47:17.765Z,6016
2016-11-28T15:47:45.650Z,13888
2016-11-28T15:48:13.371Z,11424
2016-11-28T15:48:41.149Z,13604
2016-11-28T15:49:08.926Z,12612
2016-11-28T15:49:36.777Z,13116
2016-11-28T15:50:04.726Z,12008
2016-11-28T15:50:32.453Z,14116
2016-11-28T15:51:00.221Z,15408
2016-11-28T15:51:28.015Z,15088
2016-11-28T15:51:55.699Z,15568
2016-11-28T15:52:23.550Z,13344
2016-11-28T15:52:51.323Z,12452
2016-11-28T15:53:19.145Z,13528
2016-11-28T15:53:47.030Z,16248
2016-11-28T15:54:14.846Z,16468
2016-11-28T15:54:42.829Z,16620
2016-11-28T15:55:10.593Z,16752
2016-11-28T15:55:38.368Z,16860
2016-11-28T15:56:06.227Z,16964
2016-11-28T15:56:34.097Z,17076
2016-11-28T15:57:01.794Z,17212
2016-11-28T15:57:29.492Z,16856
2016-11-28T15:57:57.398Z,16476
2016-11-28T15:58:25.203Z,16064
2016-11-28T15:58:52.967Z,15984
2016-11-28T15:59:20.828Z,15948
2016-11-28T15:59:48.623Z,16408
2016-11-28T16:00:16.418Z,17028
2016-11-28T16:00:44.210Z,18304
2016-11-28T16:01:11.930Z,19104
2016-11-28T16:01:39.902Z,19360
2016-11-28T16:02:07.599Z,19520
2016-11-28T16:02:35.339Z,19328
2016-11-28T16:03:03.233Z,18720
2016-11-28T16:03:30.921Z,17920
2016-11-28T16:03:58.742Z,17312
2016-11-28T16:04:26.451Z,17088
2016-11-28T16:05:36.612Z,18080
2016-11-28T16:06:04.320Z,17568
2016-11-28T16:06:32.036Z,16956
2016-11-28T16:06:59.751Z,16340
2016-11-28T16:07:27.560Z,16052
2016-11-28T16:07:55.551Z,15848
2016-11-28T16:08:23.428Z,15340
2016-11-28T16:08:51.262Z,14724
2016-11-28T16:09:18.952Z,14288
2016-11-28T16:09:46.828Z,13872
2016-11-28T16:10:14.597Z,13552
2016-11-28T16:10:42.403Z,13312
2016-11-28T16:11:10.103Z,12916
2016-11-28T16:11:37.945Z,12472
2016-11-28T16:12:05.850Z,12040
2016-11-28T16:12:33.670Z,11580
2016-11-28T16:13:01.618Z,11156
2016-11-28T16:13:29.507Z,10716
2016-11-28T16:13:57.310Z,10276
2016-11-28T16:14:25.232Z,9888
2016-11-28T16:14:53.023Z,9548
2016-11-28T16:15:20.955Z,9304
2016-11-28T16:15:48.661Z,9100
2016-11-28T16:16:16.448Z,8960
2016-11-28T16:16:44.255Z,8844
2016-11-28T16:17:12.274Z,8756
2016-11-28T16:17:40.085Z,8656
2016-11-28T16:18:07.774Z,8612
2016-11-28T16:18:35.564Z,8684
2016-11-28T16:19:03.479Z,8844
2016-11-28T16:19:31.606Z,9112
2016-11-28T16:19:59.433Z,9444
2016-11-28T16:20:27.594Z,9864
2016-11-28T16:20:55.303Z,10064
2016-11-28T16:21:23.149Z,10456
2016-11-28T16:21:51.037Z,10964
2016-11-28T16:22:18.957Z,11472
2016-11-28T16:22:46.757Z,11812
2016-11-28T16:23:14.468Z,11848
2016-11-28T16:23:42.442Z,11732
2016-11-28T16:24:10.140Z,11572
2016-11-28T16:24:37.845Z,11492
2016-11-28T16:25:05.834Z,11512
2016-11-28T16:25:33.543Z,11536
2016-11-28T16:26:01.269Z,11672
2016-11-28T16:26:29.073Z,11896
2016-11-28T16:26:56.890Z,12172
2016-11-28T16:27:24.779Z,12452
2016-11-28T16:27:52.565Z,12564
2016-11-28T16:28:20.353Z,12668
2016-11-28T16:28:48.239Z,12732
2016-11-28T16:29:15.910Z,12744
2016-11-28T16:29:43.707Z,12768
2016-11-28T16:30:11.450Z,12744
2016-11-28T16:30:39.279Z,12752
2016-11-28T16:31:06.978Z,12628
2016-11-28T16:31:34.773Z,12336
2016-11-28T16:32:02.612Z,12012
2016-11-28T16:32:30.458Z,11732
2016-11-28T16:32:58.293Z,11436
2016-11-28T16:33:26.519Z,11156
2016-11-28T16:33:54.421Z,11048
2016-11-28T16:34:22.250Z,11028
2016-11-28T16:34:50.068Z,11020
2016-11-28T16:35:17.978Z,11056
2016-11-28T16:35:45.896Z,11156
2016-11-28T16:36:13.631Z,11388
2016-11-28T16:36:41.534Z,11668
2016-11-28T16:37:09.319Z,12164
2016-11-28T16:37:37.036Z,12768
2016-11-28T16:38:04.967Z,13236
2016-11-28T16:38:32.775Z,13680
2016-11-28T16:39:00.585Z,14220
2016-11-28T16:39:28.464Z,14784
2016-11-28T16:39:56.264Z,15292
2016-11-28T16:40:24.245Z,15712
2016-11-28T16:40:51.997Z,16040
2016-11-28T16:41:19.889Z,16268
2016-11-28T16:41:47.832Z,16464
2016-11-28T16:42:15.713Z,16692
2016-11-28T16:42:43.519Z,16916
2016-11-28T16:43:11.306Z,17172
2016-11-28T16:43:39.310Z,17696
2016-11-28T16:44:07.175Z,18144
2016-11-28T16:44:34.993Z,18816
2016-11-28T16:45:03.041Z,19264
2016-11-28T16:45:31.086Z,19424
2016-11-28T16:45:58.903Z,19584
2016-11-28T16:46:26.806Z,19648
2016-11-28T16:46:54.642Z,19488
2016-11-28T16:47:22.449Z,19200
2016-11-28T16:47:50.353Z,18816
2016-11-28T16:48:18.170Z,18432
2016-11-28T16:48:46.262Z,18016
2016-11-28T16:49:13.950Z,17664
2016-11-28T16:49:41.772Z,17632
2016-11-28T16:50:09.765Z,17312
2016-11-28T16:50:37.692Z,16880
2016-11-28T16:51:05.521Z,16532
2016-11-28T16:51:33.423Z,16392
2016-11-28T16:52:01.151Z,16340
2016-11-28T16:52:29.076Z,16244
2016-11-28T16:52:56.987Z,16216
2016-11-28T16:53:24.889Z,16100
2016-11-28T16:53:52.895Z,15808
2016-11-28T16:54:20.687Z,15508
2016-11-28T16:54:48.629Z,15344
2016-11-28T16:55:16.421Z,15016
2016-11-28T16:55:44.204Z,15068
2016-11-28T16:56:12.026Z,14840
2016-11-28T16:56:39.726Z,14704
2016-11-28T16:57:07.516Z,14604
2016-11-28T16:57:35.455Z,14636
2016-11-28T16:58:03.213Z,14904
2016-11-28T16:58:31.023Z,15064
2016-11-28T16:59:13.436Z,15356
2016-11-28T16:59:42.057Z,15524
2016-11-28T17:00:09.952Z,15480
2016-11-28T17:01:20.413Z,14968
2016-11-28T17:01:48.311Z,14384
2016-11-28T17:02:16.129Z,13896
2016-11-28T17:02:43.946Z,13300
2016-11-28T17:03:12.469Z,12872
2016-11-28T17:03:42.075Z,12612
2016-11-28T17:04:10.474Z,12560
2016-11-28T17:04:39.998Z,12596
2016-11-28T17:05:08.112Z,12696
2016-11-28T17:05:36.116Z,12804
2016-11-28T17:06:04.125Z,12908
2016-11-28T17:06:32.159Z,12968
2016-11-28T17:07:02.046Z,12944
2016-11-28T17:07:32.227Z,12776
2016-11-28T17:08:00.872Z,12492
2016-11-28T17:08:28.773Z,12156
2016-11-28T17:08:58.221Z,11852
2016-11-28T17:09:26.496Z,11536
2016-11-28T17:09:54.873Z,11312
2016-11-28T17:10:23.162Z,11140
2016-11-28T17:10:53.303Z,11060
2016-11-28T17:11:21.624Z,10988
2016-11-28T17:11:50.055Z,10948
2016-11-28T17:12:19.485Z,11076
2016-11-28T17:12:47.549Z,11260
2016-11-28T17:13:15.809Z,11452
2016-11-28T17:13:43.938Z,11524
2016-11-28T17:14:12.358Z,11468
2016-11-28T17:14:40.514Z,11372
2016-11-28T17:15:09.538Z,11288
2016-11-28T17:15:38.903Z,11292
2016-11-28T17:16:07.329Z,11304
2016-11-28T17:16:36.630Z,11168
2016-11-28T17:17:04.769Z,11008
2016-11-28T17:17:34.180Z,10876
2016-11-28T17:18:02.640Z,10700
2016-11-28T17:18:30.644Z,10540
2016-11-28T17:18:58.770Z,10436
2016-11-28T17:19:26.778Z,10420
2016-11-28T17:19:55.101Z,10516
2016-11-28T17:20:23.426Z,10688
2016-11-28T17:20:51.640Z,10836
2016-11-28T17:21:20.783Z,10880
2016-11-28T17:21:52.397Z,10852
2016-11-28T17:22:20.553Z,10852
2016-11-28T17:22:51.644Z,10772
2016-11-28T17:23:20.180Z,10572
2016-11-28T17:23:50.185Z,10320
2016-11-28T17:24:18.350Z,10140
2016-11-28T17:24:49.112Z,9972
2016-11-28T17:25:18.908Z,9904
2016-11-28T17:25:48.253Z,9892
2016-11-28T17:26:17.357Z,9956
2016-11-28T17:27:01.713Z,10152
2016-11-28T17:27:30.929Z,10308
2016-11-28T17:27:59.524Z,10528
2016-11-28T17:28:38.672Z,10852
2016-11-28T17:29:07.420Z,11324
2016-11-28T17:29:37.070Z,11636
2016-11-28T17:30:07.012Z,11984
2016-11-28T17:30:36.641Z,12368
2016-11-28T17:31:05.516Z,12816
2016-11-28T17:31:35.206Z,13296
2016-11-28T17:32:03.584Z,13760
2016-11-28T17:32:34.087Z,14276
2016-11-28T17:33:02.842Z,14684
2016-11-28T17:33:31.604Z,15012
2016-11-28T17:34:06.683Z,15284
2016-11-28T17:34:36.083Z,15440
2016-11-28T17:35:03.969Z,15556
2016-11-28T17:35:31.663Z,15680
2016-11-28T17:35:59.582Z,15820
2016-11-28T17:36:27.380Z,15972
2016-11-28T17:36:55.378Z,16172
2016-11-28T17:37:23.439Z,16396
2016-11-28T17:37:51.241Z,16624
2016-11-28T17:38:19.044Z,16832
2016-11-28T17:38:46.949Z,17020
2016-11-28T17:39:14.648Z,17164
2016-11-28T17:39:42.683Z,17408
2016-11-28T17:40:10.407Z,17504
2016-11-28T17:40:38.320Z,17600
2016-11-28T17:41:06.257Z,17696
2016-11-28T17:41:33.977Z,17760
2016-11-28T17:42:01.866Z,17856
2016-11-28T17:42:29.657Z,17984
2016-11-28T17:42:57.349Z,18016
2016-11-28T17:43:25.306Z,18144
2016-11-28T17:43:53.116Z,18208
2016-11-28T17:44:21.063Z,18336
2016-11-28T17:44:48.881Z,18432
2016-11-28T17:45:16.779Z,18496
2016-11-28T17:45:44.685Z,18624
2016-11-28T17:46:12.562Z,18688
2016-11-28T17:46:40.620Z,18784
2016-11-28T17:47:08.439Z,18816
2016-11-28T17:47:36.152Z,18816
2016-11-28T17:48:04.162Z,18848
2016-11-28T17:48:32.244Z,18848
2016-11-28T17:49:00.163Z,18784
2016-11-28T17:49:28.098Z,18720
2016-11-28T17:49:55.798Z,18624
2016-11-28T17:50:23.500Z,18496
2016-11-28T17:50:51.305Z,18304
2016-11-28T17:51:19.026Z,18144
2016-11-28T17:51:46.919Z,17920
2016-11-28T17:52:14.692Z,17760
2016-11-28T17:52:42.535Z,17600
2016-11-28T17:53:12.033Z,17376
2016-11-28T17:53:40.553Z,17060
2016-11-28T17:54:09.701Z,16856
2016-11-28T17:54:40.844Z,16648
2016-11-28T17:55:10.339Z,16424
2016-11-28T17:55:39.613Z,16208
2016-11-28T17:56:19.508Z,15972
2016-11-28T17:56:49.032Z,15840
2016-11-28T17:57:18.569Z,15744
2016-11-28T17:57:50.725Z,15640
2016-11-28T17:58:24.334Z,15560
2016-11-28T17:58:55.586Z,15496
2016-11-28T17:59:26.238Z,15440
2016-11-28T17:59:56.324Z,15380
2016-11-28T18:00:26.030Z,15316
2016-11-28T18:00:55.835Z,15256
2016-11-28T18:01:26.115Z,15184
2016-11-28T18:01:58.449Z,15100
2016-11-28T18:02:30.322Z,14980
2016-11-28T18:03:00.220Z,14856
2016-11-28T18:03:29.692Z,14732
2016-11-28T18:03:58.901Z,14604
2016-11-28T18:04:33.270Z,14428
2016-11-28T18:05:05.191Z,14252
2016-11-28T18:05:35.173Z,14096
2016-11-28T18:06:10.974Z,13920
2016-11-28T18:06:43.951Z,13680
2016-11-28T18:07:13.763Z,13484
2016-11-28T18:07:44.812Z,13300
2016-11-28T18:08:13.487Z,13136
2016-11-28T18:08:42.747Z,12988
2016-11-28T18:09:12.342Z,12856
2016-11-28T18:09:41.435Z,12736
2016-11-28T18:10:13.769Z,12604
2016-11-28T18:10:43.416Z,12496
2016-11-28T18:11:11.518Z,12396
2016-11-28T18:11:39.245Z,12320
2016-11-28T18:12:08.157Z,12248
2016-11-28T18:12:36.701Z,12220
2016-11-28T18:13:06.559Z,12252
2016-11-28T18:13:35.874Z,12320
2016-11-28T18:14:04.989Z,12400
2016-11-28T18:14:34.280Z,12476
2016-11-28T18:15:03.065Z,12520
2016-11-28T18:15:31.607Z,12488
2016-11-28T18:15:59.688Z,12360
2016-11-28T18:16:29.005Z,12096
2016-11-28T18:16:57.012Z,11708
2016-11-28T18:17:25.348Z,11284
2016-11-28T18:17:53.747Z,10880
2016-11-28T18:18:23.112Z,10544
2016-11-28T18:18:54.358Z,10268
2016-11-28T18:19:24.765Z,10048
2016-11-28T18:19:54.152Z,9900
2016-11-28T18:20:25.352Z,9820
2016-11-28T18:20:54.025Z,9804
2016-11-28T18:21:23.335Z,9824
2016-11-28T18:21:51.239Z,9864
2016-11-28T18:22:19.273Z,9956
2016-11-28T18:22:47.071Z,10072
2016-11-28T18:23:14.895Z,10228
2016-11-28T18:23:42.660Z,10404
2016-11-28T18:24:10.543Z,10548
2016-11-28T18:24:38.327Z,10640
2016-11-28T18:25:09.192Z,10656
2016-11-28T18:25:37.231Z,10548
2016-11-28T18:26:05.037Z,10264
2016-11-28T18:26:32.805Z,9824
2016-11-28T18:27:00.572Z,9244
2016-11-28T18:27:28.401Z,8528
2016-11-28T18:27:56.279Z,7764
2016-11-28T18:28:24.001Z,7032
2016-11-28T18:28:51.706Z,6300
2016-11-28T18:29:19.631Z,5560
2016-11-28T18:29:47.527Z,5172
2016-11-28T18:30:15.454Z,4816
2016-11-28T18:30:43.422Z,4640
2016-11-28T18:31:11.318Z,4660
2016-11-28T18:31:39.349Z,4872
2016-11-28T18:32:07.059Z,5012
2016-11-28T18:32:35.300Z,5140
2016-11-28T18:33:04.196Z,5272
2016-11-28T18:33:31.917Z,5376
2016-11-28T18:34:00.021Z,5420
2016-11-28T18:34:27.768Z,5440
2016-11-28T18:34:56.217Z,5480
2016-11-28T18:35:24.021Z,5504
2016-11-28T18:35:52.284Z,5464
2016-11-28T18:36:20.362Z,5356
2016-11-28T18:36:49.753Z,5188
2016-11-28T18:37:20.348Z,4976
2016-11-28T18:37:49.556Z,4820
2016-11-28T18:38:19.963Z,4680
2016-11-28T18:38:48.800Z,4492
2016-11-28T18:39:18.757Z,4260
2016-11-28T18:39:47.854Z,3996
2016-11-28T18:40:18.837Z,3740
2016-11-28T18:40:47.849Z,3556
2016-11-28T18:41:18.068Z,3416
2016-11-28T18:41:50.603Z,3296
2016-11-28T18:42:19.208Z,3160
2016-11-28T18:42:48.171Z,3024
2016-11-28T18:43:17.604Z,2928
2016-11-28T18:43:45.729Z,2756
2016-11-28T18:44:14.513Z,2596
2016-11-28T18:44:44.176Z,2448
2016-11-28T18:45:12.571Z,2336
2016-11-28T18:45:41.093Z,2224
2016-11-28T18:46:09.205Z,2128
2016-11-28T18:46:37.343Z,1992
2016-11-28T18:47:06.454Z,1788
2016-11-28T18:47:34.546Z,1596
2016-11-28T18:48:02.257Z,1448
2016-11-28T18:48:30.256Z,1304
2016-11-28T18:48:58.450Z,1276
2016-11-28T18:49:28.220Z,1232
2016-11-28T18:49:56.597Z,1088
2016-11-28T18:50:25.689Z,992
2016-11-28T18:50:53.562Z,828
2016-11-28T18:51:21.382Z,764
2016-11-28T18:51:49.086Z,856
2016-11-28T18:52:16.875Z,976
2016-11-28T18:52:44.602Z,1072
2016-11-28T18:53:12.293Z,1092
2016-11-28T18:53:40.120Z,1092
2016-11-28T18:54:07.935Z,1144
2016-11-28T18:54:35.685Z,1160
2016-11-28T18:55:03.421Z,1208
2016-11-28T18:55:31.408Z,1240
2016-11-28T18:55:59.109Z,1264
2016-11-28T18:56:26.804Z,1236
2016-11-28T18:56:54.723Z,1248
2016-11-28T18:57:22.510Z,1240
2016-11-28T18:57:50.309Z,1248
2016-11-28T18:58:18.193Z,1284
2016-11-28T18:58:46.100Z,1344
2016-11-28T18:59:13.825Z,1300
2016-11-28T18:59:41.559Z,1316
2016-11-28T19:00:09.357Z,1280
2016-11-28T19:00:37.256Z,1320
2016-11-28T19:01:05.064Z,1288
2016-11-28T19:01:32.772Z,1276
2016-11-28T19:02:00.462Z,1280
2016-11-28T19:02:28.181Z,1232
2016-11-28T19:02:55.903Z,1252
2016-11-28T19:03:23.603Z,1204
2016-11-28T19:03:51.396Z,1168
2016-11-28T19:04:19.200Z,1120
2016-11-28T19:04:47.014Z,1100
2016-11-28T19:05:14.707Z,1084
2016-11-28T19:05:42.424Z,1060
2016-11-28T19:06:10.347Z,1068
2016-11-28T19:06:38.171Z,1048
2016-11-28T19:07:06.071Z,1064
2016-11-28T19:07:33.838Z,1052
2016-11-28T19:08:01.661Z,1020
2016-11-28T19:08:29.623Z,1064
2016-11-28T19:08:57.416Z,1108
2016-11-28T19:09:25.264Z,1180
2016-11-28T19:09:53.049Z,1200
2016-11-28T19:10:20.772Z,1176
2016-11-28T19:10:48.743Z,1124
2016-11-28T19:11:16.629Z,1056
2016-11-28T19:11:44.428Z,1076
2016-11-28T19:12:12.284Z,996
2016-11-28T19:12:39.997Z,1008
2016-11-28T19:13:07.718Z,1012
2016-11-28T19:13:35.437Z,1008
2016-11-28T19:14:03.200Z,1004
2016-11-28T19:14:30.999Z,1020
2016-11-28T19:14:58.764Z,984
2016-11-28T19:15:41.234Z,1032
2016-11-28T19:16:08.949Z,1060
2016-11-28T19:16:36.656Z,1076
2016-11-28T19:17:04.370Z,1096
2016-11-28T19:17:32.088Z,1120
2016-11-28T19:17:59.864Z,1108
2016-11-28T19:18:27.750Z,1100
2016-11-28T19:18:55.439Z,1108
2016-11-28T19:19:23.154Z,1108
2016-11-28T19:19:51.412Z,1116
2016-11-28T19:20:19.139Z,1112
2016-11-28T19:20:47.079Z,1136
2016-11-28T19:21:15.008Z,1108
2016-11-28T19:21:42.696Z,1100
2016-11-28T19:22:10.384Z,1104
2016-11-28T19:22:38.187Z,1116
2016-11-28T19:23:06.031Z,1132
2016-11-28T19:23:33.917Z,1156
2016-11-28T19:24:01.620Z,1180
2016-11-28T19:24:29.532Z,1204
2016-11-28T19:24:57.333Z,1212
2016-11-28T19:25:25.134Z,1208
2016-11-28T19:25:52.959Z,1196
2016-11-28T19:26:20.687Z,1180
2016-11-28T19:26:48.569Z,1160
2016-11-28T19:27:16.647Z,1140
2016-11-28T19:27:44.546Z,1128
2016-11-28T19:28:12.262Z,1152
2016-11-28T19:28:40.119Z,1180
2016-11-28T19:29:08.030Z,1208
2016-11-28T19:29:35.740Z,1228
2016-11-28T19:30:04.136Z,1260
2016-11-28T19:30:31.916Z,1284
2016-11-28T19:30:59.720Z,1300
2016-11-28T19:31:27.537Z,1312
2016-11-28T19:31:55.248Z,1316
2016-11-28T19:32:23.115Z,1312
2016-11-28T19:32:51.016Z,1308
2016-11-28T19:33:18.804Z,1304
2016-11-28T19:33:46.592Z,1292
2016-11-28T19:34:14.312Z,1276
2016-11-28T19:34:42.107Z,1252
2016-11-28T19:35:09.851Z,1224
2016-11-28T19:35:37.651Z,1212
2016-11-28T19:36:05.659Z,1212
2016-11-28T19:36:33.557Z,1212
2016-11-28T19:37:01.336Z,1204
2016-11-28T19:37:29.066Z,1204
2016-11-28T19:37:56.837Z,1200
2016-11-28T19:38:24.632Z,1200
2016-11-28T19:38:52.435Z,1200
2016-11-28T19:39:20.136Z,1200
2016-11-28T19:39:47.962Z,1200
2016-11-28T19:40:15.759Z,1192
2016-11-28T19:40:43.693Z,1184
2016-11-28T19:41:11.481Z,1188
2016-11-28T19:41:39.161Z,1196
2016-11-28T19:42:07.057Z,1204
2016-11-28T19:42:34.773Z,1220
2016-11-28T19:43:02.471Z,1224
2016-11-28T19:43:30.180Z,1228
2016-11-28T19:43:58.065Z,1228
2016-11-28T19:44:25.776Z,1220
2016-11-28T19:44:53.637Z,1204
2016-11-28T19:45:21.439Z,1188
2016-11-28T19:45:49.160Z,1168
2016-11-28T19:46:16.944Z,1152
2016-11-28T19:46:44.702Z,1132
2016-11-28T19:47:12.507Z,1112
2016-11-28T19:47:40.196Z,1100
2016-11-28T19:48:08.273Z,1092
2016-11-28T19:48:35.976Z,1080
2016-11-28T19:49:04.030Z,1068
2016-11-28T19:49:31.748Z,1052
2016-11-28T19:49:59.472Z,1044
2016-11-28T19:50:27.343Z,1040
2016-11-28T19:50:55.242Z,1040
2016-11-28T19:51:23.114Z,1044
2016-11-28T19:51:50.894Z,1048
2016-11-28T19:52:18.890Z,1052
2016-11-28T19:52:46.634Z,1052
2016-11-28T19:53:14.342Z,1052
2016-11-28T19:53:42.067Z,1068
2016-11-28T19:54:10.137Z,1084
2016-11-28T19:54:37.874Z,1084
2016-11-28T19:55:05.663Z,1096
2016-11-28T19:55:33.388Z,1108
2016-11-28T19:56:01.471Z,1112
2016-11-28T19:56:29.192Z,1116
2016-11-28T19:56:57.076Z,1120
2016-11-28T19:57:24.805Z,1128
2016-11-28T19:57:52.506Z,1132
2016-11-28T19:58:20.504Z,1132
2016-11-28T19:58:48.288Z,1140
2016-11-28T19:59:16.108Z,1140
2016-11-28T19:59:43.844Z,1144
2016-11-28T20:00:11.767Z,1140
2016-11-28T20:00:39.616Z,1132
2016-11-28T20:01:07.505Z,1120
2016-11-28T20:01:35.288Z,1104
2016-11-28T20:02:02.986Z,1096
2016-11-28T20:02:30.778Z,1100
2016-11-28T20:02:58.693Z,1124
2016-11-28T20:03:26.492Z,1140
2016-11-28T20:03:54.308Z,1152
2016-11-28T20:04:22.238Z,1160
2016-11-28T20:04:49.951Z,1164
2016-11-28T20:05:17.787Z,1168
2016-11-28T20:05:45.676Z,1168
2016-11-28T20:06:13.487Z,1168
2016-11-28T20:06:41.201Z,1160
2016-11-28T20:07:08.932Z,1148
2016-11-28T20:07:36.771Z,1136
2016-11-28T20:08:04.678Z,1128
2016-11-28T20:08:32.473Z,1128
2016-11-28T20:09:00.243Z,1124
2016-11-28T20:09:28.050Z,1128
2016-11-28T20:09:55.745Z,1128
2016-11-28T20:10:23.619Z,1132
2016-11-28T20:10:51.524Z,1136
2016-11-28T20:11:19.273Z,1144
2016-11-28T20:11:47.155Z,1148
2016-11-28T20:12:14.992Z,1160
2016-11-28T20:12:42.971Z,1172
2016-11-28T20:13:10.668Z,1184
2016-11-28T20:13:38.477Z,1188
2016-11-28T20:14:06.297Z,1192
2016-11-28T20:14:34.177Z,1204
2016-11-28T20:15:01.963Z,1212
2016-11-28T20:15:29.860Z,1224
2016-11-28T20:15:57.775Z,1236
2016-11-28T20:16:25.466Z,1248
2016-11-28T20:16:53.244Z,1256
2016-11-28T20:17:20.935Z,1260
2016-11-28T20:17:48.743Z,1264
2016-11-28T20:18:16.604Z,1272
2016-11-28T20:18:44.504Z,1280
2016-11-28T20:19:12.329Z,1288
2016-11-28T20:19:40.212Z,1284
2016-11-28T20:20:08.014Z,1284
2016-11-28T20:20:35.738Z,1272
2016-11-28T20:21:03.455Z,1256
2016-11-28T20:21:31.341Z,1236
2016-11-28T20:21:59.141Z,1212
2016-11-28T20:22:26.988Z,1188
2016-11-28T20:22:54.865Z,1180
2016-11-28T20:23:22.572Z,1176
2016-11-28T20:23:50.361Z,1180
2016-11-28T20:24:18.087Z,1188
2016-11-28T20:24:45.789Z,1200
2016-11-28T20:25:13.577Z,1208
2016-11-28T20:25:41.296Z,1220
2016-11-28T20:26:09.183Z,1232
2016-11-28T20:26:37.020Z,1240
2016-11-28T20:27:04.735Z,1252
2016-11-28T20:27:32.570Z,1256
2016-11-28T20:28:00.356Z,1256
2016-11-28T20:28:28.069Z,1252
2016-11-28T20:28:55.757Z,1244
2016-11-28T20:29:23.613Z,1240
2016-11-28T20:29:51.320Z,1240
2016-11-28T20:30:19.036Z,1244
2016-11-28T20:30:46.873Z,1252
2016-11-28T20:31:14.714Z,1256
2016-11-28T20:31:42.428Z,1260
2016-11-28T20:32:10.251Z,1260
2016-11-28T20:32:38.029Z,1268
2016-11-28T20:33:05.834Z,1276
2016-11-28T20:33:33.672Z,1280
2016-11-28T20:34:01.374Z,1292
2016-11-28T20:34:29.179Z,1296
2016-11-28T20:34:56.963Z,1312
2016-11-28T20:35:24.668Z,1316
2016-11-28T20:35:52.499Z,1324
2016-11-28T20:36:20.187Z,1320
2016-11-28T20:36:47.998Z,1308
2016-11-28T20:37:15.806Z,1296
2016-11-28T20:37:43.503Z,1276
2016-11-28T20:38:11.222Z,1264
2016-11-28T20:38:39.019Z,1244
2016-11-28T20:39:06.926Z,1228
2016-11-28T20:39:34.610Z,1216
2016-11-28T20:40:02.321Z,1200
2016-11-28T20:40:30.220Z,1192
2016-11-28T20:40:58.259Z,1172
2016-11-28T20:41:26.288Z,1156
2016-11-28T20:41:53.989Z,1136
2016-11-28T20:42:22.699Z,1116
2016-11-28T20:42:50.607Z,1100
2016-11-28T20:43:18.425Z,1084
2016-11-28T20:43:46.208Z,1064
2016-11-28T20:44:14.055Z,1048
2016-11-28T20:44:41.747Z,1040
2016-11-28T20:45:09.537Z,1036
2016-11-28T20:45:37.253Z,1032
2016-11-28T20:46:05.004Z,1040
2016-11-28T20:46:32.690Z,1048
2016-11-28T20:47:00.616Z,1060
2016-11-28T20:47:28.293Z,1076
2016-11-28T20:47:56.136Z,1088
2016-11-28T20:48:23.848Z,1096
2016-11-28T20:48:51.591Z,1100
2016-11-28T20:49:19.385Z,1100
2016-11-28T20:49:47.214Z,1092
2016-11-28T20:50:15.007Z,1084
2016-11-28T20:50:42.720Z,1080
2016-11-28T20:51:10.523Z,1072
2016-11-28T20:51:38.398Z,1072
2016-11-28T20:52:06.182Z,1072
2016-11-28T20:52:33.953Z,1088
2016-11-28T20:53:01.822Z,1104
2016-11-28T20:53:29.683Z,1120
2016-11-28T20:53:57.643Z,1136
2016-11-28T20:54:25.521Z,1156
2016-11-28T20:54:53.220Z,1176
2016-11-28T20:55:21.045Z,1188
2016-11-28T20:55:48.927Z,1196
2016-11-28T20:56:16.661Z,1200
2016-11-28T20:56:44.390Z,1200
2016-11-28T20:57:12.321Z,1184
2016-11-28T20:57:40.017Z,1168
2016-11-28T20:58:07.803Z,1144
2016-11-28T20:58:35.502Z,1112
2016-11-28T20:59:03.381Z,1088
2016-11-28T20:59:31.095Z,1060
2016-11-28T20:59:58.887Z,1036
2016-11-28T21:00:26.679Z,1016
2016-11-28T21:00:54.661Z,996
2016-11-28T21:01:22.484Z,980
2016-11-28T21:01:50.243Z,960
2016-11-28T21:02:18.073Z,944
2016-11-28T21:02:45.886Z,924
2016-11-28T21:03:13.606Z,904
2016-11-28T21:03:41.501Z,884
2016-11-28T21:04:09.376Z,860
2016-11-28T21:04:37.876Z,840
2016-11-28T21:05:05.978Z,820
2016-11-28T21:05:33.970Z,800
2016-11-28T21:06:02.485Z,788
2016-11-28T21:06:30.372Z,772
2016-11-28T21:06:58.138Z,756
2016-11-28T21:07:25.833Z,732
2016-11-28T21:07:53.552Z,712
2016-11-28T21:08:21.274Z,688
2016-11-28T21:08:49.045Z,668
2016-11-28T21:09:16.942Z,644
2016-11-28T21:09:44.838Z,620
2016-11-28T21:10:12.599Z,600
2016-11-28T21:10:40.608Z,576
2016-11-28T21:11:08.502Z,552
2016-11-28T21:11:36.347Z,528
2016-11-28T21:12:04.051Z,508
2016-11-28T21:12:31.800Z,484
2016-11-28T21:13:00.304Z,464
2016-11-28T21:13:28.310Z,440
2016-11-28T21:13:56.017Z,420
2016-11-28T21:14:23.710Z,400